Time;durP1;ratioP1;P1;durP2;ratioP2;P2;SDS_P1;SDS_P2;PMS_P1;PMS_P2;Temp;Humidity;BMP_temperature;BMP_pressure;BME280_temperature;BME280_humidity;BME280_pressure;Samples;Min_cycle;Max_cycle;Signal;HPM_P1;HPM_P2
2023/06/22 00:02:08;;;;;;;;;2.75;2.25;;;;;23.05;54.02;101356.72;4945189;28;45278;-72
2023/06/22 00:04:34;;;;;;;;;4.75;3.75;;;;;23.00;53.50;101354.13;4943459;28;45456;-72
2023/06/22 00:07:00;;;;;;;;;4.00;4.00;;;;;22.97;53.08;101362.28;4947323;28;45531;-72
2023/06/22 00:09:25;;;;;;;;;4.33;4.33;;;;;22.88;54.47;101357.00;4944609;28;46080;-71
2023/06/22 00:11:50;;;;;;;;;5.33;5.33;;;;;22.83;54.29;101353.53;4945977;28;45335;-72
2023/06/22 00:14:16;;;;;;;;;4.75;4.00;;;;;22.90;54.11;101371.34;4939357;28;45449;-71
2023/06/22 00:16:42;;;;;;;;;4.25;4.00;;;;;22.85;54.23;101360.63;4947628;28;45568;-72
2023/06/22 00:19:10;;;;;;;;;3.00;3.00;;;;;22.79;54.33;101358.94;4951163;28;45448;-71
2023/06/22 00:21:37;;;;;;;;;5.00;5.00;;;;;22.78;53.58;101367.06;4945387;28;45444;-71
2023/06/22 00:24:02;;;;;;;;;3.00;2.75;;;;;22.73;54.17;101344.69;4937455;28;45394;-71
2023/06/22 00:26:28;;;;;;;;;3.25;3.25;;;;;22.84;54.16;101344.50;4945429;28;45199;-72
2023/06/22 00:28:53;;;;;;;;;4.00;4.00;;;;;22.84;53.32;101344.50;4936053;28;45973;-72
2023/06/22 00:31:18;;;;;;;;;4.00;4.00;;;;;22.73;54.19;101331.22;4953374;28;45357;-72
2023/06/22 00:33:44;;;;;;;;;4.00;4.00;;;;;22.77;54.45;101333.84;4941945;28;45416;-71
2023/06/22 00:36:13;;;;;;;;;6.00;3.75;;;;;22.76;54.20;101328.47;4953041;28;45584;-72
2023/06/22 00:38:40;;;;;;;;;4.50;4.00;;;;;22.74;53.69;101322.19;4941806;28;46795;-72
2023/06/22 00:41:05;;;;;;;;;6.00;6.00;;;;;22.65;54.73;101309.78;4952175;28;45326;-72
2023/06/22 00:43:31;;;;;;;;;4.33;4.33;;;;;22.71;54.02;101314.16;4944572;28;45567;-71
2023/06/22 00:45:56;;;;;;;;;4.33;4.33;;;;;22.62;53.51;101309.84;4951813;28;45495;-72
2023/06/22 00:48:22;;;;;;;;;4.00;4.00;;;;;22.64;54.47;101316.09;4935354;28;46197;-72
2023/06/22 00:50:50;;;;;;;;;5.00;5.00;;;;;22.69;53.87;101322.31;4941898;28;45235;-72
2023/06/22 00:53:17;;;;;;;;;3.00;3.00;;;;;22.67;54.45;101334.91;4934928;28;45368;-71
2023/06/22 00:55:46;;;;;;;;;4.00;4.00;;;;;22.64;54.37;101316.09;4948806;28;45341;-71
2023/06/22 00:58:12;;;;;;;;;5.25;3.00;;;;;22.57;54.72;101292.84;4938053;28;45631;-72
2023/06/22 01:00:39;;;;;;;;;5.67;4.00;;;;;22.60;54.69;101305.38;4946854;28;45231;-71
2023/06/22 01:03:08;;;;;;;;;5.00;4.33;;;;;22.55;54.45;101308.19;4935891;28;45417;-72
2023/06/22 01:05:34;;;;;;;;;6.33;4.33;;;;;22.53;54.19;101302.81;4946672;28;45277;-71
2023/06/22 01:08:16;;;;;;;;;3.33;3.33;;;;;22.50;53.59;101318.13;4935823;28;46147;-71
2023/06/22 01:10:51;;;;;;;;;5.33;5.33;;;;;22.27;54.14;101280.81;4949560;28;45342;-71
2023/06/22 01:13:35;;;;;;;;;4.00;3.00;;;;;22.45;54.46;101318.22;4943393;28;45262;-71
2023/06/22 01:16:05;;;;;;;;;4.33;3.67;;;;;22.43;54.29;101319.16;4940158;28;45716;-71
2023/06/22 01:18:32;;;;;;;;;4.33;3.00;;;;;22.39;53.72;101310.22;4937945;28;45954;-71
2023/06/22 01:21:00;;;;;;;;;3.00;3.00;;;;;22.33;53.94;101305.84;4942739;28;45343;-71
2023/06/22 01:23:47;;;;;;;;;5.00;5.00;;;;;22.31;54.26;101301.38;4935156;28;45223;-71
2023/06/22 01:26:21;;;;;;;;;5.33;4.00;;;;;22.26;54.40;101297.88;4942182;28;45281;-71
2023/06/22 01:28:53;;;;;;;;;6.33;5.33;;;;;22.24;55.04;101294.34;4936449;28;45468;-72
2023/06/22 01:31:23;;;;;;;;;6.00;6.00;;;;;22.17;54.76;101281.84;4941316;28;45420;-72
2023/06/22 01:33:52;;;;;;;;;1.67;1.67;;;;;22.18;54.80;101281.84;4929202;28;45463;-71
2023/06/22 01:36:19;;;;;;;;;3.67;3.67;;;;;22.22;55.17;101288.97;4930439;28;46857;-72
2023/06/22 01:38:46;;;;;;;;;5.33;3.33;;;;;22.22;54.98;101274.59;4931104;28;45536;-72
2023/06/22 01:41:12;;;;;;;;;4.00;4.00;;;;;22.15;54.83;101257.59;4942951;28;45378;-71
2023/06/22 01:43:38;;;;;;;;;4.00;4.00;;;;;22.19;54.99;101271.97;4933420;28;45408;-71
2023/06/22 01:46:04;;;;;;;;;5.67;5.33;;;;;22.17;55.28;101268.38;4942703;28;45297;-72
2023/06/22 01:48:30;;;;;;;;;4.00;4.00;;;;;22.17;55.07;101265.69;4933096;28;45912;-72
2023/06/22 01:50:55;;;;;;;;;5.00;5.00;;;;;22.16;54.79;101262.09;4941257;28;45389;-72
2023/06/22 01:53:22;;;;;;;;;6.33;5.33;;;;;22.15;54.45;101259.41;4930382;28;45267;-72
2023/06/22 01:55:48;;;;;;;;;5.00;5.00;;;;;22.11;54.55;101258.59;4931597;28;45294;-71
2023/06/22 01:58:13;;;;;;;;;6.00;6.00;;;;;22.03;55.20;101252.44;4932860;28;45928;-72
2023/06/22 02:00:40;;;;;;;;;2.67;2.67;;;;;;;;4932463;28;45211;-71
2023/06/22 02:03:11;;;;;;;;;3.33;3.33;;;;;22.06;55.19;101253.25;4938954;28;46472;-71
2023/06/22 02:05:47;;;;;;;;;5.00;3.67;;;;;22.04;55.00;101247.03;4946625;28;45246;-71
2023/06/22 02:08:22;;;;;;;;;4.33;4.33;;;;;21.96;54.45;101238.19;4935794;28;45370;-71
2023/06/22 02:10:49;;;;;;;;;6.00;6.00;;;;;22.02;54.86;101250.66;4945701;28;45436;-71
2023/06/22 02:13:15;;;;;;;;;3.67;3.67;;;;;21.99;54.38;101251.59;4941843;28;45421;-72
2023/06/22 02:15:41;;;;;;;;;7.00;5.00;;;;;21.88;55.07;101232.91;4953074;28;45680;-71
2023/06/22 02:18:07;;;;;;;;;5.00;5.00;;;;;21.90;54.82;101230.19;4938919;28;46699;-72
2023/06/22 02:20:32;;;;;;;;;5.00;4.00;;;;;21.90;54.79;101239.19;4936221;28;45289;-71
2023/06/22 02:22:57;;;;;;;;;4.00;4.00;;;;;21.98;54.57;101244.41;4936371;28;45405;-72
2023/06/22 02:25:23;;;;;;;;;7.33;4.00;;;;;21.92;55.23;101243.63;4938410;28;45583;-71
2023/06/22 02:27:48;;;;;;;;;5.67;4.00;;;;;21.88;54.44;101230.22;4940384;28;45541;-72
2023/06/22 02:30:15;;;;;;;;;4.00;4.00;;;;;21.95;54.71;101239.09;4939759;28;45274;-71
2023/06/22 02:32:42;;;;;;;;;9.67;5.33;;;;;21.98;54.91;101246.22;4941314;28;45641;-71
2023/06/22 02:35:10;;;;;;;;;5.67;5.00;;;;;21.95;54.53;101244.47;4941198;28;45548;-71
2023/06/22 02:37:41;;;;;;;;;7.00;5.00;;;;;21.90;54.37;101247.25;4946987;28;45418;-71
2023/06/22 02:40:10;;;;;;;;;7.00;6.00;;;;;21.89;54.50;101253.53;4948670;28;45468;-71
2023/06/22 02:42:39;;;;;;;;;5.67;5.67;;;;;21.89;54.52;101250.84;4928066;28;45250;-71
2023/06/22 02:45:05;;;;;;;;;6.33;6.00;;;;;21.88;54.67;101248.19;4939117;28;45460;-71
2023/06/22 02:47:30;;;;;;;;;6.00;5.00;;;;;21.89;55.13;101244.56;4947090;28;45545;-70
2023/06/22 02:49:56;;;;;;;;;6.00;6.00;;;;;21.81;55.17;101236.59;4940892;28;45352;-71
2023/06/22 02:52:21;;;;;;;;;6.00;5.67;;;;;21.79;55.59;101229.47;4943815;28;45298;-71
2023/06/22 02:54:46;;;;;;;;;6.67;6.67;;;;;21.84;54.72;101241.94;4943417;28;45574;-71
2023/06/22 02:57:13;;;;;;;;;8.33;5.00;;;;;21.86;54.73;101253.56;4942119;28;46868;-71
2023/06/22 02:59:40;;;;;;;;;7.33;6.67;;;;;21.84;54.69;101246.44;4942959;28;45304;-71
2023/06/22 03:02:06;;;;;;;;;4.67;4.00;;;;;21.83;54.92;101247.34;4944936;28;45210;-71
2023/06/22 03:04:31;;;;;;;;;11.00;5.67;;;;;21.77;55.53;101240.28;4943078;28;45515;-71
2023/06/22 03:07:00;;;;;;;;;5.00;5.00;;;;;21.85;54.96;101259.00;4946390;28;45352;-71
2023/06/22 03:09:27;;;;;;;;;7.67;6.00;;;;;21.72;55.38;101234.06;4940755;28;45361;-71
2023/06/22 03:11:53;;;;;;;;;6.00;6.00;;;;;21.57;54.78;101196.63;4946959;28;45257;-71
2023/06/22 03:14:18;;;;;;;;;5.67;5.67;;;;;21.82;55.46;101243.78;4942554;28;45561;-71
2023/06/22 03:16:43;;;;;;;;;6.00;4.33;;;;;21.82;54.86;101237.53;4950995;28;45262;-71
2023/06/22 03:19:09;;;;;;;;;6.33;6.33;;;;;21.81;55.07;101228.53;4948298;28;45296;-71
2023/06/22 03:21:34;;;;;;;;;5.00;5.00;;;;;21.68;55.54;101194.66;4955414;28;45515;-71
2023/06/22 03:24:00;;;;;;;;;5.33;4.00;;;;;21.76;55.82;101210.66;4941947;28;45630;-71
2023/06/22 03:26:26;;;;;;;;;7.67;7.00;;;;;21.75;55.67;101207.09;4956962;28;45300;-71
2023/06/22 03:28:52;;;;;;;;;6.00;5.00;;;;;21.72;55.85;101200.88;4937964;28;45452;-71
2023/06/22 03:31:21;;;;;;;;;4.00;4.00;;;;;21.76;55.17;101210.66;4954892;28;45385;-72
2023/06/22 03:33:47;;;;;;;;;6.67;4.67;;;;;21.66;56.20;101208.13;4940488;28;45437;-72
2023/06/22 03:36:12;;;;;;;;;4.33;4.33;;;;;21.55;55.31;101175.13;4957169;28;47863;-71
2023/06/22 03:38:38;;;;;;;;;4.67;4.67;;;;;21.74;56.17;101205.34;4944014;28;45264;-71
2023/06/22 03:41:03;;;;;;;;;8.00;5.00;;;;;21.74;55.42;101208.03;4959774;28;45246;-71
2023/06/22 03:43:28;;;;;;;;;5.00;5.00;;;;;21.62;55.19;101183.97;4938721;28;45474;-71
2023/06/22 03:45:54;;;;;;;;;4.00;4.00;;;;;21.70;55.54;101200.00;4950776;28;46134;-71
2023/06/22 03:48:19;;;;;;;;;5.00;4.67;;;;;21.65;55.65;101203.69;4940869;28;45264;-71
2023/06/22 03:50:44;;;;;;;;;6.00;6.00;;;;;21.66;56.83;101204.56;4950949;28;46158;-71
2023/06/22 03:53:10;;;;;;;;;8.00;5.67;;;;;21.64;56.30;101201.00;4939780;28;45954;-71
2023/06/22 03:55:36;;;;;;;;;7.00;7.00;;;;;21.66;56.38;101196.47;4947580;28;45447;-71
2023/06/22 03:58:05;;;;;;;;;8.00;8.00;;;;;21.66;56.28;101201.88;4932481;28;45364;-71
2023/06/22 04:00:31;;;;;;;;;8.00;8.00;;;;;21.59;56.08;101184.94;4945089;28;45505;-71
2023/06/22 04:02:57;;;;;;;;;7.00;6.00;;;;;21.63;56.38;101204.59;4941741;28;45596;-71
2023/06/22 04:05:23;;;;;;;;;6.67;6.67;;;;;21.67;55.87;101200.94;4953666;28;46273;-71
2023/06/22 04:07:48;;;;;;;;;8.67;7.00;;;;;21.67;56.94;101207.22;4941190;28;45855;-72
2023/06/22 04:10:13;;;;;;;;;6.67;6.67;;;;;21.73;55.92;101210.72;4938309;28;45401;-72
2023/06/22 04:12:38;;;;;;;;;7.33;7.33;;;;;21.63;56.42;101202.81;4939038;28;47229;-71
2023/06/22 04:15:04;;;;;;;;;7.33;5.67;;;;;21.73;56.70;101205.34;4938847;28;45282;-72
2023/06/22 04:17:30;;;;;;;;;5.00;5.00;;;;;21.73;55.63;101202.66;4941343;28;45424;-72
2023/06/22 04:19:55;;;;;;;;;9.00;7.33;;;;;21.61;56.97;101195.66;4950887;28;45566;-71
2023/06/22 04:22:20;;;;;;;;;11.00;8.00;;;;;21.66;56.76;101199.19;4942957;28;45412;-71
2023/06/22 04:24:46;;;;;;;;;9.67;9.00;;;;;21.68;56.27;101203.63;4938460;28;46167;-71
2023/06/22 04:27:11;;;;;;;;;8.00;8.00;;;;;21.70;56.07;101198.19;4944695;28;45522;-71
2023/06/22 04:29:38;;;;;;;;;9.00;9.00;;;;;21.67;56.89;101198.25;4943999;28;45377;-72
2023/06/22 04:32:05;;;;;;;;;10.33;9.00;;;;;21.69;56.88;101199.13;4933350;28;45595;-72
2023/06/22 04:34:30;;;;;;;;;10.00;8.33;;;;;21.59;56.87;101193.00;4947522;28;45332;-73
2023/06/22 04:36:56;;;;;;;;;11.33;10.00;;;;;21.66;56.02;101197.38;4946012;28;45421;-73
2023/06/22 04:39:21;;;;;;;;;11.33;8.67;;;;;21.50;57.22;101182.38;4948139;28;45457;-72
2023/06/22 04:41:47;;;;;;;;;9.33;9.33;;;;;21.63;57.28;101204.59;4946027;28;45420;-71
2023/06/22 04:44:23;;;;;;;;;8.67;7.00;;;;;21.65;57.63;101205.47;4944285;28;46009;-71
2023/06/22 04:46:53;;;;;;;;;10.33;9.00;;;;;21.65;58.23;101192.03;4947219;28;45571;-71
2023/06/22 04:49:21;;;;;;;;;8.00;8.00;;;;;21.62;56.66;101190.28;4938529;28;45390;-71
2023/06/22 04:51:46;;;;;;;;;12.00;10.00;;;;;21.66;56.73;101204.56;4947307;28;45480;-71
2023/06/22 04:54:11;;;;;;;;;10.33;10.00;;;;;21.62;58.25;101210.88;4941972;28;45258;-71
2023/06/22 04:56:37;;;;;;;;;12.33;11.00;;;;;21.50;58.61;101198.50;4947238;28;45247;-71
2023/06/22 04:59:05;;;;;;;;;9.00;8.00;;;;;21.55;57.46;101209.22;4939850;28;45385;-71
2023/06/22 05:01:31;;;;;;;;;10.00;10.00;;;;;21.49;59.46;101204.81;4942763;28;45439;-71
2023/06/22 05:03:58;;;;;;;;;10.00;10.00;;;;;21.44;57.61;101198.59;4928457;28;46104;-71
2023/06/22 05:06:26;;;;;;;;;13.00;10.00;;;;;21.43;60.12;101205.78;4936835;28;45380;-71
2023/06/22 05:08:58;;;;;;;;;10.67;10.67;;;;;21.32;58.63;101198.75;4932787;28;45350;-71
2023/06/22 05:11:25;;;;;;;;;11.33;9.67;;;;;21.24;60.57;101185.41;4938109;28;45472;-70
2023/06/22 05:13:50;;;;;;;;;11.33;11.33;;;;;21.26;60.13;101197.03;4936531;28;46340;-71
2023/06/22 05:16:16;;;;;;;;;9.00;9.00;;;;;21.26;60.38;101202.41;4951565;28;45349;-72
2023/06/22 05:18:41;;;;;;;;;10.00;8.67;;;;;21.24;61.78;101201.53;4942960;28;45566;-70
2023/06/22 05:21:07;;;;;;;;;19.00;13.67;;;;;21.18;61.16;101196.25;4950609;28;45246;-70
2023/06/22 05:23:32;;;;;;;;;11.00;11.00;;;;;21.17;59.58;101197.13;4950977;28;46459;-70
2023/06/22 05:25:57;;;;;;;;;11.33;11.33;;;;;21.07;61.82;101196.38;4973466;28;45264;-71
2023/06/22 05:28:24;;;;;;;;;13.67;11.67;;;;;21.15;61.31;101210.59;4951764;28;45192;-70
2023/06/22 05:30:49;;;;;;;;;13.33;11.00;;;;;21.13;61.73;101208.84;4957834;28;45244;-70
2023/06/22 05:33:15;;;;;;;;;12.33;12.33;;;;;21.10;61.29;101203.50;4957530;28;45914;-70
2023/06/22 05:35:40;;;;;;;;;18.67;15.67;;;;;21.06;64.02;101207.13;4969813;28;45234;-70
2023/06/22 05:38:05;;;;;;;;;10.67;10.67;;;;;20.96;61.47;101199.19;4960446;28;45227;-68
2023/06/22 05:40:30;;;;;;;;;18.67;14.33;;;;;20.91;64.16;101195.66;4971210;28;45260;-67
2023/06/22 05:42:56;;;;;;;;;15.33;13.00;;;;;20.83;62.39;101177.84;4961168;28;46225;-67
2023/06/22 05:45:21;;;;;;;;;14.67;14.67;;;;;20.84;62.49;101177.84;4961014;28;45197;-67
2023/06/22 05:47:47;;;;;;;;;20.33;17.00;;;;;20.77;62.25;101179.69;4965110;28;45174;-67
2023/06/22 05:50:13;;;;;;;;;16.67;16.00;;;;;20.81;65.07;101198.47;4961928;28;45303;-68
2023/06/22 05:52:38;;;;;;;;;16.33;16.00;;;;;20.82;63.82;101198.47;4964599;28;45560;-69
2023/06/22 05:55:04;;;;;;;;;16.67;16.67;;;;;20.72;66.17;101194.97;4957724;28;45333;-70
2023/06/22 05:57:29;;;;;;;;;18.67;16.33;;;;;20.79;69.02;101201.19;4957536;28;45274;-70
2023/06/22 05:59:54;;;;;;;;;24.00;17.67;;;;;20.74;64.18;101194.97;4962533;28;45231;-71
2023/06/22 06:02:20;;;;;;;;;19.00;17.67;;;;;20.75;64.75;101196.75;4961061;28;45412;-70
2023/06/22 06:04:45;;;;;;;;;16.67;15.33;;;;;20.66;65.23;101183.41;4949757;28;45413;-70
2023/06/22 06:07:11;;;;;;;;;21.67;21.67;;;;;20.64;65.25;101187.91;4957264;28;45358;-70
2023/06/22 06:09:36;;;;;;;;;16.67;16.67;;;;;20.49;67.34;101172.81;4954912;28;45333;-70
2023/06/22 06:12:03;;;;;;;;;20.67;20.67;;;;;20.51;67.63;101179.97;4958882;28;45281;-69
2023/06/22 06:14:28;;;;;;;;;19.67;18.00;;;;;20.53;69.07;101194.31;4960480;28;45242;-70
2023/06/22 06:16:53;;;;;;;;;22.00;20.00;;;;;20.51;67.38;101189.81;4963227;28;45403;-70
2023/06/22 06:19:19;;;;;;;;;22.67;19.00;;;;;20.45;69.55;101190.78;4956949;28;45380;-70
2023/06/22 06:21:44;;;;;;;;;23.00;19.33;;;;;20.38;68.61;101175.63;4965565;28;45258;-69
2023/06/22 06:24:10;;;;;;;;;19.67;19.67;;;;;20.39;68.80;101181.88;4949795;28;45175;-70
2023/06/22 06:26:35;;;;;;;;;19.00;19.00;;;;;20.34;68.51;101182.81;4965932;28;45184;-70
2023/06/22 06:29:02;;;;;;;;;19.33;18.67;;;;;20.41;70.86;101204.25;4959894;28;45316;-70
2023/06/22 06:31:28;;;;;;;;;20.67;20.67;;;;;20.35;70.43;101200.69;4971429;28;45519;-70
2023/06/22 06:33:54;;;;;;;;;15.00;15.00;;;;;20.41;67.34;101205.13;4976403;28;45349;-71
2023/06/22 06:36:19;;;;;;;;;21.67;20.00;;;;;20.35;70.00;101200.69;4975890;28;45270;-70
2023/06/22 06:38:46;;;;;;;;;21.33;20.00;;;;;20.26;71.11;101191.88;4959963;28;45490;-70
2023/06/22 06:41:15;;;;;;;;;25.00;23.33;;;;;20.24;68.47;101207.97;4977559;28;45280;-70
2023/06/22 06:43:43;;;;;;;;;24.33;23.67;;;;;20.22;71.36;101204.44;4951716;28;45539;-71
2023/06/22 06:46:08;;;;;;;;;20.67;19.67;;;;;20.24;70.08;101221.38;4968405;28;45458;-70
2023/06/22 06:48:33;;;;;;;;;25.00;21.67;;;;;20.04;71.18;101192.03;4956284;28;45462;-70
2023/06/22 06:50:59;;;;;;;;;27.67;25.33;;;;;20.22;73.03;101219.63;4967127;28;46141;-70
2023/06/22 06:53:24;;;;;;;;;21.00;21.00;;;;;20.22;72.11;101214.25;4956699;28;45424;-70
2023/06/22 06:55:49;;;;;;;;;29.00;22.33;;;;;20.19;69.95;101206.22;4966480;28;45290;-70
2023/06/22 06:58:16;;;;;;;;;26.33;23.33;;;;;20.18;72.38;101201.78;4954538;28;45454;-70
2023/06/22 07:00:41;;;;;;;;;25.67;23.67;;;;;20.11;73.46;101192.91;4964802;28;45113;-70
2023/06/22 07:03:07;;;;;;;;;28.33;27.00;;;;;20.03;71.31;101184.03;4962285;28;45351;-70
2023/06/22 07:05:32;;;;;;;;;24.00;24.00;;;;;20.04;72.22;101184.00;4974530;28;45380;-70
2023/06/22 07:07:57;;;;;;;;;27.67;25.33;;;;;19.98;74.13;101180.47;4963556;28;45427;-70
2023/06/22 07:10:23;;;;;;;;;26.33;24.33;;;;;19.99;74.05;101182.25;4958084;28;45294;-70
2023/06/22 07:12:48;;;;;;;;;22.33;17.67;;;;;20.02;69.11;101187.59;4960635;28;45288;-70
2023/06/22 07:15:14;;;;;;;;;27.00;24.33;;;;;19.96;72.99;101199.25;4959390;28;45155;-70
2023/06/22 07:17:43;;;;;;;;;31.67;28.00;;;;;19.85;73.78;101185.91;4961681;28;45297;-70
2023/06/22 07:20:11;;;;;;;;;28.33;25.67;;;;;19.86;76.89;101202.94;4967556;28;45328;-69
2023/06/22 07:22:40;;;;;;;;;35.00;29.00;;;;;19.72;77.32;101184.25;4980119;28;45517;-70
2023/06/22 07:25:09;;;;;;;;;37.33;29.67;;;;;19.83;77.69;101202.97;4963144;28;45251;-70
2023/06/22 07:27:42;;;;;;;;;26.33;26.00;;;;;19.78;73.26;101194.06;4966147;28;45310;-71
2023/06/22 07:30:08;;;;;;;;;33.00;28.67;;;;;19.67;77.63;101181.59;4966576;28;45364;-70
2023/06/22 07:32:34;;;;;;;;;30.33;30.00;;;;;19.74;78.30;101195.84;4968163;28;45547;-69
2023/06/22 07:34:59;;;;;;;;;29.33;29.00;;;;;19.73;74.19;101202.13;4967909;28;45313;-69
2023/06/22 07:37:27;;;;;;;;;33.67;30.67;;;;;19.66;77.42;101192.31;4971095;28;45281;-70
2023/06/22 07:39:53;;;;;;;;;31.33;29.33;;;;;19.43;75.02;101171.88;4968607;28;46193;-69
2023/06/22 07:42:19;;;;;;;;;31.33;30.33;;;;;19.57;75.97;101197.72;4968099;28;45333;-70
2023/06/22 07:44:44;;;;;;;;;35.67;32.67;;;;;19.56;74.78;101190.59;4959364;28;45432;-69
2023/06/22 07:47:09;;;;;;;;;36.33;31.67;;;;;19.47;78.44;101182.63;4969120;28;45212;-69
2023/06/22 07:49:35;;;;;;;;;32.67;29.33;;;;;19.50;76.75;101188.84;4962174;28;45270;-69
2023/06/22 07:52:01;;;;;;;;;30.67;29.33;;;;;19.47;76.73;101188.84;4967398;28;45289;-72
2023/06/22 07:54:27;;;;;;;;;36.00;32.33;;;;;19.49;78.51;101191.50;4960494;28;45399;-69
2023/06/22 07:56:52;;;;;;;;;33.00;31.67;;;;;19.44;79.05;101187.09;4966808;28;45531;-70
2023/06/22 07:59:18;;;;;;;;;31.67;29.67;;;;;19.54;76.00;101200.44;4957075;28;47084;-69
2023/06/22 08:01:43;;;;;;;;;38.67;31.67;;;;;19.53;78.27;101198.66;4969593;28;45345;-69
2023/06/22 08:04:08;;;;;;;;;42.00;32.67;;;;;19.53;78.11;101199.53;4958681;28;45337;-68
2023/06/22 08:06:34;;;;;;;;;37.67;32.67;;;;;19.45;77.72;101186.16;4970045;28;45434;-68
2023/06/22 08:08:59;;;;;;;;;29.67;28.33;;;;;19.50;75.51;101198.69;4961495;28;45326;-68
2023/06/22 08:11:25;;;;;;;;;39.33;32.33;;;;;19.40;78.33;101187.09;4972455;28;45377;-69
2023/06/22 08:13:51;;;;;;;;;39.33;32.33;;;;;19.45;78.94;101196.00;4963940;28;45377;-70
2023/06/22 08:16:16;;;;;;;;;40.67;33.67;;;;;19.53;79.97;101202.22;4971749;28;47090;-69
2023/06/22 08:18:42;;;;;;;;;33.33;30.67;;;;;19.51;76.49;101201.34;4961154;28;45417;-69
2023/06/22 08:21:07;;;;;;;;;36.00;32.67;;;;;19.48;75.39;101204.03;4969009;28;45676;-70
2023/06/22 08:23:32;;;;;;;;;37.00;32.00;;;;;19.54;77.36;101208.47;4949426;28;45420;-71
2023/06/22 08:25:58;;;;;;;;;33.67;30.00;;;;;19.47;75.74;101204.06;4962892;28;45622;-69
2023/06/22 08:28:23;;;;;;;;;32.67;30.67;;;;;19.43;78.66;101203.16;4957262;28;45384;-70
2023/06/22 08:30:48;;;;;;;;;39.33;30.00;;;;;19.41;76.62;101202.31;4968116;28;45254;-70
2023/06/22 08:33:14;;;;;;;;;36.00;32.00;;;;;19.42;77.87;101210.31;4958222;28;45431;-70
2023/06/22 08:35:39;;;;;;;;;27.67;25.67;;;;;19.34;77.99;101206.78;4962225;28;45264;-70
2023/06/22 08:38:04;;;;;;;;;34.00;28.67;;;;;19.41;78.21;101219.28;4956431;28;45282;-70
2023/06/22 08:40:30;;;;;;;;;35.00;30.00;;;;;19.34;79.03;101203.22;4962379;28;45273;-69
2023/06/22 08:42:55;;;;;;;;;34.00;32.00;;;;;19.45;77.19;101222.81;4960617;28;45336;-69
2023/06/22 08:45:21;;;;;;;;;35.67;30.33;;;;;19.43;75.58;101219.25;4964948;28;45218;-70
2023/06/22 08:47:46;;;;;;;;;32.33;30.00;;;;;19.38;76.79;101208.56;4961518;28;45282;-69
2023/06/22 08:50:12;;;;;;;;;37.00;31.33;;;;;19.48;75.93;101216.56;4958222;28;45393;-68
2023/06/22 08:52:41;;;;;;;;;34.67;30.67;;;;;19.39;75.95;101201.41;4962076;28;45694;-69
2023/06/22 08:55:07;;;;;;;;;33.33;31.67;;;;;19.52;79.65;101221.91;4962498;28;45406;-68
2023/06/22 08:57:32;;;;;;;;;32.67;30.00;;;;;19.44;78.34;101200.50;4959302;28;45356;-69
2023/06/22 08:59:58;;;;;;;;;31.00;27.33;;;;;19.40;77.86;101187.97;4978815;28;45251;-68
2023/06/22 09:02:30;;;;;;;;;32.33;27.67;;;;;19.60;77.54;101220.03;4966000;28;45227;-67
2023/06/22 09:04:56;;;;;;;;;31.33;28.67;;;;;19.59;77.44;101220.94;4966970;28;45420;-69
2023/06/22 09:07:23;;;;;;;;;31.00;27.33;;;;;19.53;77.31;101204.91;4967792;28;45292;-67
2023/06/22 09:09:48;;;;;;;;;31.33;29.00;;;;;19.64;76.10;101218.25;4957473;28;45311;-67
2023/06/22 09:12:14;;;;;;;;;28.33;24.33;;;;;19.64;77.89;101213.78;4956579;28;45311;-68
2023/06/22 09:14:39;;;;;;;;;31.33;30.67;;;;;19.68;76.80;101215.56;4960052;28;45476;-68
2023/06/22 09:17:05;;;;;;;;;26.33;26.00;;;;;19.72;76.75;101205.72;4960920;28;48371;-69
2023/06/22 09:19:30;;;;;;;;;30.00;26.67;;;;;19.68;76.46;101194.09;4962370;28;45221;-67
2023/06/22 09:21:55;;;;;;;;;30.00;26.00;;;;;19.80;76.35;101211.91;4960783;28;45170;-69
2023/06/22 09:24:21;;;;;;;;;25.33;24.33;;;;;19.82;76.25;101202.03;4957371;28;45387;-68
2023/06/22 09:26:46;;;;;;;;;24.67;23.00;;;;;19.90;77.46;101216.28;4969601;28;45412;-69
2023/06/22 09:29:11;;;;;;;;;27.00;26.00;;;;;19.91;76.51;101206.44;4958872;28;45374;-69
2023/06/22 09:31:37;;;;;;;;;29.00;23.67;;;;;20.00;76.34;101211.78;4961469;28;49035;-67
2023/06/22 09:34:02;;;;;;;;;23.33;22.00;;;;;20.06;76.99;101214.41;4962788;28;45702;-68
2023/06/22 09:36:27;;;;;;;;;22.67;22.00;;;;;20.04;74.81;101208.13;4965951;28;53634;-67
2023/06/22 09:38:58;;;;;;;;;25.00;22.33;;;;;20.11;75.35;101227.78;4965427;28;45249;-68
2023/06/22 09:41:23;;;;;;;;;24.00;23.00;;;;;20.12;75.57;101233.13;4971660;28;45291;-68
2023/06/22 09:43:49;;;;;;;;;22.00;19.67;;;;;20.12;74.70;101217.03;4957625;28;45371;-68
2023/06/22 09:46:16;;;;;;;;;22.67;20.67;;;;;20.17;75.50;101222.38;4963892;28;45425;-68
2023/06/22 09:48:41;;;;;;;;;24.00;23.00;;;;;20.21;75.93;101233.97;4959350;28;45309;-68
2023/06/22 09:51:06;;;;;;;;;28.67;28.00;;;;;20.21;76.60;101231.28;4968401;28;45350;-68
2023/06/22 09:53:32;;;;;;;;;29.00;25.33;;;;;20.24;76.56;101226.75;4958723;28;57176;-68
2023/06/22 09:55:57;;;;;;;;;25.67;24.33;;;;;20.33;75.43;101245.50;4965700;28;47202;-68
2023/06/22 09:58:23;;;;;;;;;21.67;21.33;;;;;20.39;75.32;101252.59;4961155;28;45348;-68
2023/06/22 10:00:48;;;;;;;;;25.67;19.33;;;;;20.36;74.96;101241.84;4970104;28;45356;-68
2023/06/22 10:03:13;;;;;;;;;23.00;21.00;;;;;20.41;74.03;101256.16;4958681;28;53351;-68
2023/06/22 10:05:39;;;;;;;;;22.67;20.67;;;;;20.45;74.77;101249.84;4970646;28;45348;-68
2023/06/22 10:08:04;;;;;;;;;25.67;25.00;;;;;20.48;73.71;101232.84;4955437;28;45507;-68
2023/06/22 10:10:29;;;;;;;;;23.67;22.00;;;;;20.54;73.76;101235.47;4972249;28;45262;-68
2023/06/22 10:12:57;;;;;;;;;23.33;23.00;;;;;20.66;74.70;101251.47;4973752;28;45471;-68
2023/06/22 10:15:22;;;;;;;;;26.00;21.33;;;;;20.78;73.69;101253.13;4974431;28;47400;-69
2023/06/22 10:17:48;;;;;;;;;22.33;20.67;;;;;20.85;75.37;101246.78;4962035;28;45304;-69
2023/06/22 10:20:13;;;;;;;;;20.33;20.33;;;;;20.94;73.70;101246.69;4969924;28;45265;-68
2023/06/22 10:22:44;;;;;;;;;23.67;20.67;;;;;21.09;73.67;101250.09;4959704;28;47157;-69
2023/06/22 10:25:11;;;;;;;;;20.33;18.33;;;;;21.16;72.96;101251.81;4959185;28;46145;-69
2023/06/22 10:27:39;;;;;;;;;21.67;20.00;;;;;21.29;73.61;101258.84;4963894;28;45289;-69
2023/06/22 10:30:09;;;;;;;;;23.33;22.33;;;;;21.33;73.54;101244.44;4967341;28;45448;-68
2023/06/22 10:32:36;;;;;;;;;21.00;21.00;;;;;21.60;72.84;101255.78;4969507;28;45371;-69
2023/06/22 10:35:02;;;;;;;;;22.33;18.33;;;;;21.72;71.82;101254.69;4968524;28;46121;-69
2023/06/22 10:37:27;;;;;;;;;25.00;21.67;;;;;21.83;71.98;101260.81;4971870;28;45503;-68
2023/06/22 10:39:52;;;;;;;;;26.33;25.33;;;;;21.85;73.41;101254.50;4969641;28;45356;-70
2023/06/22 10:42:18;;;;;;;;;22.00;21.00;;;;;22.05;71.83;101264.97;4968990;28;45222;-69
2023/06/22 10:44:44;;;;;;;;;27.67;23.00;;;;;22.30;73.03;101261.91;4960934;28;45303;-70
2023/06/22 10:47:11;;;;;;;;;18.00;18.00;;;;;22.55;71.24;101274.03;4970310;28;45426;-69
2023/06/22 10:49:37;;;;;;;;;15.00;14.67;;;;;22.78;70.38;101267.34;4963512;28;45302;-70
2023/06/22 10:52:02;;;;;;;;;19.33;18.67;;;;;23.00;71.03;101279.53;4972741;28;45495;-70
2023/06/22 10:54:28;;;;;;;;;18.00;17.67;;;;;23.21;69.80;101278.19;4962591;28;45477;-70
2023/06/22 10:56:54;;;;;;;;;15.00;15.00;;;;;23.33;68.65;101274.38;4966408;28;45257;-70
2023/06/22 10:59:21;;;;;;;;;18.33;18.00;;;;;23.37;68.63;101278.78;4958393;28;45487;-70
2023/06/22 11:01:46;;;;;;;;;16.00;16.00;;;;;23.40;68.12;101280.53;4971137;28;46569;-70
2023/06/22 11:04:12;;;;;;;;;16.00;16.00;;;;;23.29;66.90;101287.94;4965316;28;45293;-70
2023/06/22 11:06:37;;;;;;;;;17.00;16.00;;;;;23.24;67.23;101298.81;4973286;28;45342;-70
2023/06/22 11:09:04;;;;;;;;;17.00;17.00;;;;;23.22;66.66;101311.47;4966015;28;46734;-70
2023/06/22 11:11:29;;;;;;;;;16.33;15.67;;;;;23.16;66.80;101303.47;4974701;28;45302;-71
2023/06/22 11:13:54;;;;;;;;;19.67;17.33;;;;;23.19;67.32;101308.81;4963416;28;46223;-71